createdAt,value
2022-12-03T00:00:11.884Z,58.58
2022-12-03T00:01:45.782Z,62.20
2022-12-03T00:03:19.165Z,62.17
2022-12-03T00:04:51.687Z,58.35
2022-12-03T00:06:30.149Z,63.15
2022-12-03T00:08:06.232Z,59.88
2022-12-03T00:09:38.364Z,58.92
2022-12-03T00:11:11.453Z,60.38
2022-12-03T00:12:44.524Z,64.60
2022-12-03T00:14:17.608Z,64.82
2022-12-03T00:15:49.897Z,56.75
2022-12-03T00:17:22.996Z,61.03
2022-12-03T00:18:56.237Z,57.75
2022-12-03T00:20:29.290Z,62.38
2022-12-03T00:22:03.705Z,59.35
2022-12-03T00:23:41.772Z,64.68
2022-12-03T00:25:15.775Z,59.85
2022-12-03T00:26:48.803Z,56.90
2022-12-03T00:28:21.901Z,63.13
2022-12-03T00:29:54.991Z,59.40
2022-12-03T00:31:28.162Z,63.78
2022-12-03T00:33:01.301Z,59.55
2022-12-03T00:34:34.576Z,57.85
2022-12-03T00:36:08.457Z,62.88
2022-12-03T00:37:42.938Z,65.85
2022-12-03T00:39:16.147Z,60.50
2022-12-03T00:40:48.251Z,59.42
2022-12-03T00:42:21.321Z,59.97
2022-12-03T00:43:57.601Z,59.60
2022-12-03T00:45:30.681Z,64.80
2022-12-03T00:47:03.857Z,55.90
2022-12-03T00:48:37.432Z,59.65
2022-12-03T00:50:11.425Z,58.00
2022-12-03T00:51:44.477Z,55.55
2022-12-03T00:53:18.891Z,57.70
2022-12-03T00:54:52.295Z,54.35
2022-12-03T00:56:25.501Z,57.58
2022-12-03T00:57:58.569Z,56.38
2022-12-03T00:59:31.629Z,53.17
2022-12-03T01:01:04.859Z,58.35
2022-12-03T01:02:37.973Z,58.13
2022-12-03T01:04:11.159Z,58.50
2022-12-03T01:05:44.261Z,52.10
2022-12-03T01:07:17.414Z,53.15
2022-12-03T01:08:51.858Z,57.38
2022-12-03T01:10:25.029Z,58.38
2022-12-03T01:11:57.091Z,55.90
2022-12-03T01:13:30.166Z,54.55
2022-12-03T01:15:03.263Z,59.15
2022-12-03T01:16:37.103Z,61.40
2022-12-03T01:18:10.204Z,57.65
2022-12-03T01:19:47.989Z,54.40
2022-12-03T01:21:21.636Z,57.75
2022-12-03T01:22:54.920Z,57.03
2022-12-03T01:24:29.411Z,56.10
2022-12-03T01:26:02.495Z,57.08
2022-12-03T01:27:35.624Z,57.13
2022-12-03T01:29:07.795Z,54.92
2022-12-03T01:30:55.019Z,55.38
2022-12-03T01:32:28.131Z,56.70
2022-12-03T01:34:00.284Z,55.22
2022-12-03T01:35:33.325Z,59.15
2022-12-03T01:37:06.405Z,58.85
2022-12-03T01:38:39.431Z,54.83
2022-12-03T01:40:17.529Z,60.20
2022-12-03T01:41:51.683Z,53.95
2022-12-03T01:43:24.855Z,54.63
2022-12-03T01:44:59.494Z,60.22
2022-12-03T01:46:37.667Z,58.22
2022-12-03T01:48:13.763Z,57.58
2022-12-03T01:49:50.113Z,60.17
2022-12-03T01:51:23.715Z,53.15
2022-12-03T01:53:01.607Z,56.67
2022-12-03T01:54:40.635Z,55.28
2022-12-03T01:56:16.912Z,59.58
2022-12-03T01:57:52.432Z,60.35
2022-12-03T01:59:35.533Z,57.65
2022-12-03T02:01:13.569Z,56.08
2022-12-03T02:02:47.931Z,57.20
2022-12-03T02:04:22.887Z,57.35
2022-12-03T02:05:56.895Z,58.55
2022-12-03T02:07:32.736Z,58.53
2022-12-03T02:09:08.536Z,57.53
2022-12-03T02:10:41.700Z,55.75
2022-12-03T02:12:18.213Z,59.33
2022-12-03T02:13:55.950Z,55.78
2022-12-03T02:15:30.161Z,58.72
2022-12-03T02:17:03.284Z,56.50
2022-12-03T02:18:36.388Z,60.17
2022-12-03T02:20:11.506Z,56.28
2022-12-03T02:21:52.241Z,54.80
2022-12-03T02:23:31.942Z,56.20
2022-12-03T02:25:10.725Z,60.67
2022-12-03T02:26:43.866Z,55.25
2022-12-03T02:28:17.094Z,54.13
2022-12-03T02:29:49.250Z,57.63
2022-12-03T02:31:22.979Z,61.63
2022-12-03T02:32:56.830Z,53.97
2022-12-03T02:34:38.512Z,56.25
2022-12-03T02:36:12.391Z,53.55
2022-12-03T02:37:47.307Z,59.60
2022-12-03T02:39:20.392Z,52.15
2022-12-03T02:40:57.738Z,54.80
2022-12-03T02:42:36.357Z,54.45
2022-12-03T02:44:10.451Z,54.80
2022-12-03T02:45:45.492Z,55.50
2022-12-03T02:47:18.073Z,53.83
2022-12-03T02:48:51.288Z,55.63
2022-12-03T02:50:28.513Z,50.88
2022-12-03T02:52:01.643Z,53.60
2022-12-03T02:53:38.193Z,58.55
2022-12-03T02:55:13.405Z,52.17
2022-12-03T02:56:46.906Z,54.25
2022-12-03T02:58:21.232Z,55.10
2022-12-03T02:59:53.374Z,52.13
2022-12-03T03:01:26.620Z,52.25
2022-12-03T03:03:00.283Z,53.63
2022-12-03T03:04:32.634Z,54.85
2022-12-03T03:06:09.147Z,55.33
2022-12-03T03:07:42.463Z,52.22
2022-12-03T03:09:15.879Z,53.25
2022-12-03T03:10:49.302Z,51.55
2022-12-03T03:12:23.379Z,53.90
2022-12-03T03:13:56.728Z,52.95
2022-12-03T03:15:29.853Z,51.75
2022-12-03T03:17:03.050Z,51.65
2022-12-03T03:18:35.504Z,51.47
2022-12-03T03:20:10.840Z,52.08
2022-12-03T03:21:44.095Z,53.67
2022-12-03T03:23:20.070Z,51.30
2022-12-03T03:24:53.369Z,51.20
2022-12-03T03:26:27.126Z,55.65
2022-12-03T03:28:02.137Z,51.63
2022-12-03T03:29:35.924Z,52.72
2022-12-03T03:31:11.297Z,56.85
2022-12-03T03:32:44.642Z,50.47
2022-12-03T03:34:18.570Z,52.50
2022-12-03T03:35:50.939Z,52.85
2022-12-03T03:37:25.117Z,53.83
2022-12-03T03:38:58.251Z,52.97
2022-12-03T03:40:31.443Z,54.38
2022-12-03T03:42:04.689Z,52.88
2022-12-03T03:43:42.494Z,52.17
2022-12-03T03:45:16.139Z,53.40
2022-12-03T03:46:49.695Z,50.47
2022-12-03T03:48:22.431Z,53.15
2022-12-03T03:49:55.692Z,52.38
2022-12-03T03:51:29.050Z,51.88
2022-12-03T03:53:04.607Z,52.80
2022-12-03T03:54:38.624Z,46.55
2022-12-03T03:56:12.828Z,49.10
2022-12-03T03:57:46.270Z,53.97
2022-12-03T03:59:20.725Z,50.35
2022-12-03T04:00:52.962Z,52.67
2022-12-03T04:02:27.911Z,50.00
2022-12-03T04:04:01.214Z,48.10
2022-12-03T04:05:33.707Z,48.08
2022-12-03T04:07:06.798Z,48.78
2022-12-03T04:08:39.856Z,48.50
2022-12-03T04:10:31.233Z,46.95
2022-12-03T04:12:22.491Z,47.65
2022-12-03T04:13:55.576Z,51.03
2022-12-03T04:15:30.186Z,47.05
2022-12-03T04:17:03.341Z,49.33
2022-12-03T04:18:44.427Z,48.30
2022-12-03T04:20:17.557Z,46.88
2022-12-03T04:22:04.546Z,43.22
2022-12-03T04:23:36.592Z,45.30
2022-12-03T04:25:28.569Z,47.15
2022-12-03T04:27:19.252Z,46.10
2022-12-03T04:28:52.380Z,49.28
2022-12-03T04:30:25.517Z,46.75
2022-12-03T04:32:18.148Z,52.22
2022-12-03T04:34:08.730Z,44.70
2022-12-03T04:35:44.891Z,43.35
2022-12-03T04:37:18.134Z,43.75
2022-12-03T04:38:50.218Z,41.50
2022-12-03T04:40:40.772Z,42.55
2022-12-03T04:42:13.932Z,41.78
2022-12-03T04:44:00.864Z,41.97
2022-12-03T04:45:33.962Z,39.58
2022-12-03T04:47:11.488Z,43.45
2022-12-03T04:48:43.554Z,44.35
2022-12-03T04:50:18.027Z,48.50
2022-12-03T04:51:50.205Z,42.53
2022-12-03T04:53:23.330Z,41.92
2022-12-03T04:54:56.615Z,44.03
2022-12-03T04:56:28.947Z,41.42
2022-12-03T04:58:02.004Z,45.53
2022-12-03T04:59:35.921Z,43.10
2022-12-03T05:01:08.058Z,43.30
2022-12-03T05:02:42.634Z,41.53
2022-12-03T05:04:16.563Z,44.08
2022-12-03T05:05:49.796Z,43.17
2022-12-03T05:07:22.863Z,46.15
2022-12-03T05:08:54.944Z,42.42
2022-12-03T05:10:28.052Z,43.22
2022-12-03T05:12:01.193Z,45.38
2022-12-03T05:13:34.280Z,42.35
2022-12-03T05:15:08.346Z,46.03
2022-12-03T05:16:41.704Z,45.88
2022-12-03T05:18:16.196Z,44.97
2022-12-03T05:20:06.922Z,46.55
2022-12-03T05:21:39.970Z,41.72
2022-12-03T05:23:13.833Z,46.00
2022-12-03T05:24:46.883Z,43.45
2022-12-03T05:26:20.181Z,44.83
2022-12-03T05:27:52.219Z,43.17
2022-12-03T05:29:25.280Z,41.70
2022-12-03T05:30:58.362Z,44.33
2022-12-03T05:32:31.489Z,48.00
2022-12-03T05:34:05.939Z,44.03
2022-12-03T05:35:38.075Z,45.00
2022-12-03T05:37:11.130Z,42.72
2022-12-03T05:38:44.252Z,45.40
2022-12-03T05:40:16.650Z,47.92
2022-12-03T05:42:06.172Z,40.75
2022-12-03T05:43:39.225Z,47.72
2022-12-03T05:45:11.308Z,47.53
2022-12-03T05:46:44.455Z,46.65
2022-12-03T05:48:17.194Z,45.38
2022-12-03T05:49:51.623Z,45.53
2022-12-03T05:51:24.912Z,45.05
2022-12-03T05:52:58.771Z,46.28
2022-12-03T05:54:32.194Z,45.65
2022-12-03T05:56:05.584Z,41.13
2022-12-03T05:57:37.840Z,45.65
2022-12-03T05:59:10.920Z,45.65
2022-12-03T06:00:44.000Z,44.38
2022-12-03T06:02:17.116Z,44.35
2022-12-03T06:03:50.569Z,45.75
2022-12-03T06:05:24.670Z,46.33
2022-12-03T06:06:57.751Z,44.85
2022-12-03T06:08:30.814Z,46.50
2022-12-03T06:10:03.078Z,48.78
2022-12-03T06:11:37.150Z,47.50
2022-12-03T06:13:09.256Z,46.45
2022-12-03T06:14:42.504Z,46.30
2022-12-03T06:16:15.919Z,45.55
2022-12-03T06:17:49.022Z,48.28
2022-12-03T06:19:22.109Z,46.20
2022-12-03T06:20:56.701Z,46.92
2022-12-03T06:22:29.968Z,47.88
2022-12-03T06:24:03.016Z,49.30
2022-12-03T06:25:36.169Z,47.00
2022-12-03T06:27:09.441Z,49.05
2022-12-03T06:28:46.240Z,47.83
2022-12-03T06:30:19.519Z,48.53
2022-12-03T06:31:52.587Z,48.03
2022-12-03T06:33:25.653Z,44.45
2022-12-03T06:34:58.995Z,43.97
2022-12-03T06:36:33.452Z,49.63
2022-12-03T06:38:06.561Z,48.88
2022-12-03T06:39:38.629Z,45.90
2022-12-03T06:41:11.698Z,45.60
2022-12-03T06:42:45.025Z,45.85
2022-12-03T06:44:18.152Z,48.67
2022-12-03T06:45:51.191Z,46.75
2022-12-03T06:47:24.317Z,47.78
2022-12-03T06:48:57.372Z,49.25
2022-12-03T06:50:30.673Z,49.17
2022-12-03T06:52:04.632Z,47.80
2022-12-03T06:53:37.753Z,46.83
2022-12-03T06:55:11.257Z,50.37
2022-12-03T06:56:45.481Z,47.53
2022-12-03T06:58:19.032Z,51.03
2022-12-03T06:59:52.498Z,45.92
2022-12-03T07:01:26.097Z,47.92
2022-12-03T07:02:59.299Z,48.65
2022-12-03T07:04:32.442Z,44.63
2022-12-03T07:06:05.700Z,46.72
2022-12-03T07:07:40.192Z,50.97
2022-12-03T07:09:13.334Z,46.22
2022-12-03T07:10:46.358Z,44.42
2022-12-03T07:12:19.484Z,43.38
2022-12-03T07:13:52.606Z,49.17
2022-12-03T07:15:25.694Z,48.38
2022-12-03T07:16:58.749Z,47.80
2022-12-03T07:18:31.817Z,48.28
2022-12-03T07:20:05.848Z,48.63
2022-12-03T07:21:39.157Z,47.47
2022-12-03T07:23:13.550Z,48.17
2022-12-03T07:24:46.686Z,48.45
2022-12-03T07:26:19.289Z,51.08
2022-12-03T07:27:52.496Z,50.25
2022-12-03T07:29:25.651Z,47.72
2022-12-03T07:30:58.930Z,46.00
2022-12-03T07:32:32.196Z,48.22
2022-12-03T07:34:05.285Z,42.72
2022-12-03T07:35:38.393Z,43.05
2022-12-03T07:37:11.451Z,43.53
2022-12-03T07:38:48.022Z,43.10
2022-12-03T07:40:21.994Z,41.85
2022-12-03T07:41:55.018Z,43.13
2022-12-03T07:43:28.148Z,45.13
2022-12-03T07:45:01.297Z,46.33
2022-12-03T07:46:34.448Z,46.15
2022-12-03T07:48:07.748Z,48.83
2022-12-03T07:49:41.176Z,46.13
2022-12-03T07:51:15.389Z,44.25
2022-12-03T07:52:48.632Z,43.05
2022-12-03T07:54:23.314Z,46.15
2022-12-03T07:55:56.359Z,43.58
2022-12-03T07:57:29.528Z,43.78
2022-12-03T07:59:02.657Z,48.20
2022-12-03T08:00:35.932Z,44.35
2022-12-03T08:02:10.198Z,47.10
2022-12-03T08:03:43.934Z,46.00
2022-12-03T08:05:17.145Z,46.13
2022-12-03T08:06:50.360Z,43.05
2022-12-03T08:08:23.504Z,41.90
2022-12-03T08:09:58.276Z,42.63
2022-12-03T08:11:31.383Z,42.77
2022-12-03T08:13:06.175Z,44.95
2022-12-03T08:14:39.616Z,46.40
2022-12-03T08:16:18.520Z,40.42
2022-12-03T08:17:55.934Z,43.03
2022-12-03T08:19:29.029Z,43.28
2022-12-03T08:21:02.154Z,39.33
2022-12-03T08:22:35.271Z,41.17
2022-12-03T08:24:15.579Z,43.22
2022-12-03T08:25:51.355Z,43.78
2022-12-03T08:27:24.423Z,40.65
2022-12-03T08:28:57.499Z,42.07
2022-12-03T08:30:30.585Z,43.53
2022-12-03T08:32:04.052Z,41.57
2022-12-03T08:33:37.918Z,42.13
2022-12-03T08:35:13.851Z,44.50
2022-12-03T08:36:47.694Z,44.35
2022-12-03T08:38:23.505Z,45.53
2022-12-03T08:39:56.749Z,44.28
2022-12-03T08:41:47.756Z,44.20
2022-12-03T08:43:24.137Z,42.70
2022-12-03T08:44:57.567Z,39.70
2022-12-03T08:46:31.486Z,44.33
2022-12-03T08:48:15.298Z,42.83
2022-12-03T08:49:54.900Z,42.33
2022-12-03T08:51:28.693Z,45.90
2022-12-03T08:53:16.964Z,47.43
2022-12-03T08:54:54.158Z,48.30
2022-12-03T08:56:30.336Z,51.03
2022-12-03T08:58:23.760Z,45.50
2022-12-03T09:00:01.169Z,48.63
2022-12-03T09:01:39.584Z,44.20
2022-12-03T09:03:17.312Z,48.03
2022-12-03T09:04:52.035Z,48.07
2022-12-03T09:06:25.377Z,49.28
2022-12-03T09:07:58.462Z,50.55
2022-12-03T09:09:31.603Z,44.97
2022-12-03T09:11:04.639Z,51.00
2022-12-03T09:12:39.210Z,47.27
2022-12-03T09:14:18.312Z,50.13
2022-12-03T09:15:51.733Z,48.37
2022-12-03T09:17:24.802Z,43.77
2022-12-03T09:18:57.941Z,51.30
2022-12-03T09:20:31.061Z,47.77
2022-12-03T09:22:04.135Z,48.13
2022-12-03T09:23:37.225Z,46.90
2022-12-03T09:25:10.864Z,46.10
2022-12-03T09:26:43.992Z,43.53
2022-12-03T09:28:18.410Z,49.07
2022-12-03T09:29:52.107Z,49.77
2022-12-03T09:31:25.509Z,48.30
2022-12-03T09:33:00.095Z,48.87
2022-12-03T09:34:34.719Z,48.05
2022-12-03T09:36:08.000Z,48.33
2022-12-03T09:37:41.119Z,50.63
2022-12-03T09:39:14.198Z,50.85
2022-12-03T09:40:48.788Z,46.80
2022-12-03T09:42:22.083Z,56.53
2022-12-03T09:44:05.724Z,49.53
2022-12-03T09:45:39.541Z,47.77
2022-12-03T09:47:12.808Z,49.73
2022-12-03T09:48:46.494Z,50.83
2022-12-03T09:50:22.604Z,51.67
2022-12-03T09:51:57.436Z,46.53
2022-12-03T09:53:30.734Z,49.47
2022-12-03T09:55:12.880Z,48.10
2022-12-03T09:56:46.075Z,50.03
2022-12-03T09:58:20.407Z,49.60
2022-12-03T09:59:55.072Z,53.77
2022-12-03T10:01:30.555Z,48.40
2022-12-03T10:03:06.039Z,46.83
2022-12-03T10:04:39.211Z,47.93
2022-12-03T10:06:17.482Z,47.73
2022-12-03T10:07:52.414Z,51.83
2022-12-03T10:09:27.231Z,55.13
2022-12-03T10:11:00.505Z,45.77
2022-12-03T10:12:33.936Z,52.80
2022-12-03T10:14:08.991Z,47.90
2022-12-03T10:15:43.522Z,47.53
2022-12-03T10:17:17.465Z,50.43
2022-12-03T10:18:53.221Z,48.00
2022-12-03T10:20:27.420Z,47.80
2022-12-03T10:22:00.594Z,49.90
2022-12-03T10:23:33.702Z,51.07
2022-12-03T10:25:10.120Z,53.83
2022-12-03T10:26:43.604Z,56.33
2022-12-03T10:28:29.063Z,51.90
2022-12-03T10:30:03.918Z,47.80
2022-12-03T10:31:38.369Z,52.40
2022-12-03T10:33:18.825Z,48.50
2022-12-03T10:34:57.564Z,46.73
2022-12-03T10:36:31.078Z,47.43
2022-12-03T10:38:06.120Z,48.63
2022-12-03T10:39:56.720Z,46.00
2022-12-03T10:41:30.138Z,46.30
2022-12-03T10:43:21.264Z,43.87
2022-12-03T10:45:17.138Z,43.90
2022-12-03T10:47:08.326Z,45.23
2022-12-03T10:48:41.512Z,46.40
2022-12-03T10:50:20.151Z,42.80
2022-12-03T10:51:53.447Z,41.93
2022-12-03T10:53:29.737Z,44.97
2022-12-03T10:55:03.201Z,47.83
2022-12-03T10:56:36.900Z,44.30
2022-12-03T10:58:19.789Z,43.97
2022-12-03T10:59:52.941Z,44.80
2022-12-03T11:01:27.635Z,43.83
2022-12-03T11:03:02.640Z,44.93
2022-12-03T11:04:37.287Z,42.97
2022-12-03T11:06:15.303Z,42.30
2022-12-03T11:07:48.799Z,42.70
2022-12-03T11:09:25.591Z,42.13
2022-12-03T11:11:01.157Z,45.20
2022-12-03T11:12:35.613Z,89.83
2022-12-03T11:14:11.885Z,51.13
2022-12-03T11:15:46.788Z,48.00
2022-12-03T11:17:45.175Z,43.17
2022-12-03T11:19:41.542Z,45.13
2022-12-03T11:21:15.872Z,43.27
2022-12-03T11:22:50.043Z,44.30
2022-12-03T11:24:23.119Z,44.37
2022-12-03T11:25:56.264Z,49.00
2022-12-03T11:27:29.374Z,46.27
2022-12-03T11:29:02.492Z,44.07
2022-12-03T11:31:02.197Z,47.70
2022-12-03T11:33:06.224Z,43.80
2022-12-03T11:34:44.106Z,51.40
2022-12-03T11:36:36.433Z,48.60
2022-12-03T11:38:52.189Z,46.80
2022-12-03T11:40:34.781Z,44.30
2022-12-03T11:42:38.488Z,47.57
2022-12-03T11:44:31.300Z,50.33
2022-12-03T11:46:10.429Z,50.57
2022-12-03T11:47:45.435Z,52.57
2022-12-03T11:49:40.221Z,55.50
2022-12-03T11:51:16.229Z,51.93
2022-12-03T11:52:53.528Z,55.80
2022-12-03T11:54:27.026Z,54.57
2022-12-03T11:56:08.844Z,53.23
2022-12-03T11:57:43.251Z,58.23
2022-12-03T11:59:17.363Z,52.70
2022-12-03T12:00:52.102Z,55.30
2022-12-03T12:02:26.619Z,54.07
2022-12-03T12:03:59.788Z,57.47
2022-12-03T12:05:34.586Z,56.60
2022-12-03T12:07:08.998Z,57.83
2022-12-03T12:08:55.439Z,54.80
2022-12-03T12:10:47.085Z,55.70
2022-12-03T12:12:21.256Z,53.37
2022-12-03T12:13:56.825Z,57.97
2022-12-03T12:15:50.693Z,53.97
2022-12-03T12:17:32.225Z,55.43
2022-12-03T12:19:44.021Z,54.93
2022-12-03T12:21:47.656Z,57.73
2022-12-03T12:23:30.225Z,52.87
2022-12-03T12:25:04.030Z,50.80
2022-12-03T12:26:37.235Z,52.00
2022-12-03T12:28:10.398Z,52.83
2022-12-03T12:29:45.813Z,49.60
2022-12-03T12:31:19.106Z,49.77
2022-12-03T12:32:53.621Z,50.33
2022-12-03T12:34:27.026Z,45.07
2022-12-03T12:36:00.125Z,43.87
2022-12-03T12:37:35.991Z,47.17
2022-12-03T12:39:13.644Z,46.23
2022-12-03T12:40:49.259Z,37.73
2022-12-03T12:42:31.665Z,31.97
2022-12-03T12:44:09.608Z,33.80
2022-12-03T12:45:44.359Z,33.03
2022-12-03T12:47:17.514Z,32.67
2022-12-03T12:48:51.876Z,34.60
2022-12-03T12:50:27.416Z,32.43
2022-12-03T12:52:01.232Z,32.20
2022-12-03T12:53:36.404Z,35.87
2022-12-03T12:55:14.915Z,33.23
2022-12-03T12:56:49.982Z,31.37
2022-12-03T12:58:23.285Z,35.10
2022-12-03T12:59:56.507Z,31.60
2022-12-03T13:01:31.185Z,36.23
2022-12-03T13:03:07.956Z,34.70
2022-12-03T13:04:41.075Z,30.37
2022-12-03T13:06:16.945Z,35.07
2022-12-03T13:07:50.305Z,33.03
2022-12-03T13:09:25.324Z,32.10
2022-12-03T13:11:01.683Z,32.37
2022-12-03T13:12:34.851Z,37.93
2022-12-03T13:14:16.280Z,30.63
2022-12-03T13:16:08.434Z,30.13
2022-12-03T13:17:41.515Z,30.30
2022-12-03T13:19:22.821Z,33.20
2022-12-03T13:20:56.815Z,30.50
2022-12-03T13:22:30.090Z,31.37
2022-12-03T13:24:03.191Z,32.80
2022-12-03T13:25:59.244Z,30.80
2022-12-03T13:27:33.678Z,31.97
2022-12-03T13:29:15.114Z,34.10
2022-12-03T13:30:47.484Z,30.90
2022-12-03T13:32:22.588Z,32.80
2022-12-03T13:33:57.433Z,32.83
2022-12-03T13:35:35.220Z,35.33
2022-12-03T13:37:15.123Z,31.03
2022-12-03T13:38:48.760Z,32.73
2022-12-03T13:40:27.209Z,33.33
2022-12-03T13:42:31.439Z,30.27
2022-12-03T13:44:17.668Z,32.20
2022-12-03T13:45:52.166Z,34.43
2022-12-03T13:47:25.417Z,34.33
2022-12-03T13:49:01.760Z,31.20
2022-12-03T13:50:37.421Z,33.83
2022-12-03T13:52:15.953Z,34.77
2022-12-03T13:53:49.044Z,33.13
2022-12-03T13:55:27.661Z,33.10
2022-12-03T13:57:02.635Z,34.97
2022-12-03T13:58:35.686Z,32.23
2022-12-03T14:00:12.076Z,31.30
2022-12-03T14:01:46.684Z,32.93
2022-12-03T14:03:19.938Z,30.73
2022-12-03T14:04:58.425Z,32.40
2022-12-03T14:06:33.807Z,35.43
2022-12-03T14:08:07.364Z,32.33
2022-12-03T14:09:40.454Z,34.13
2022-12-03T14:11:34.220Z,32.13
2022-12-03T14:13:06.323Z,33.67
2022-12-03T14:14:39.410Z,34.17
2022-12-03T14:16:13.907Z,31.47
2022-12-03T14:17:47.021Z,33.70
2022-12-03T14:19:20.120Z,34.30
2022-12-03T14:20:53.162Z,34.73
2022-12-03T14:22:26.315Z,37.50
2022-12-03T14:23:59.374Z,35.40
2022-12-03T14:25:32.491Z,34.47
2022-12-03T14:27:05.650Z,37.10
2022-12-03T14:28:38.771Z,33.57
2022-12-03T14:30:12.746Z,31.80
2022-12-03T14:31:47.423Z,33.87
2022-12-03T14:33:20.496Z,35.53
2022-12-03T14:34:53.770Z,35.30
2022-12-03T14:36:26.839Z,34.40
2022-12-03T14:37:59.953Z,33.50
2022-12-03T14:39:33.055Z,34.80
2022-12-03T14:41:27.044Z,34.23
2022-12-03T14:42:59.124Z,34.30
2022-12-03T14:44:33.935Z,33.30
2022-12-03T14:46:07.312Z,33.20
2022-12-03T14:47:41.764Z,37.43
2022-12-03T14:49:14.915Z,38.47
2022-12-03T14:50:48.071Z,34.23
2022-12-03T14:52:21.558Z,37.13
2022-12-03T14:53:54.650Z,34.03
2022-12-03T14:55:27.678Z,37.83
2022-12-03T14:57:00.920Z,34.57
2022-12-03T14:58:34.504Z,34.73
2022-12-03T15:00:08.701Z,32.93
2022-12-03T15:01:41.855Z,36.03
2022-12-03T15:03:16.353Z,35.97
2022-12-03T15:04:49.586Z,39.33
2022-12-03T15:06:22.643Z,37.73
2022-12-03T15:07:55.834Z,39.10
2022-12-03T15:09:28.948Z,39.37
2022-12-03T15:11:02.454Z,33.13
2022-12-03T15:12:35.524Z,34.60
2022-12-03T15:14:08.603Z,34.70
2022-12-03T15:15:41.806Z,36.27
2022-12-03T15:17:14.976Z,36.73
2022-12-03T15:18:49.488Z,35.30
2022-12-03T15:20:22.571Z,35.03
2022-12-03T15:21:55.658Z,35.90
2022-12-03T15:23:29.174Z,38.40
2022-12-03T15:25:03.410Z,37.53
2022-12-03T15:26:36.500Z,36.30
2022-12-03T15:28:09.811Z,36.63
2022-12-03T15:29:42.861Z,36.07
2022-12-03T15:31:15.956Z,35.40
2022-12-03T15:32:49.102Z,34.37
2022-12-03T15:34:23.740Z,35.90
2022-12-03T15:35:56.807Z,37.00
2022-12-03T15:37:30.046Z,36.27
2022-12-03T15:39:03.235Z,35.17
2022-12-03T15:40:38.059Z,37.47
2022-12-03T15:42:12.373Z,35.30
2022-12-03T15:43:45.432Z,36.33
2022-12-03T15:45:19.971Z,34.60
2022-12-03T15:46:53.019Z,39.47
2022-12-03T15:48:26.093Z,38.20
2022-12-03T15:50:00.522Z,37.27
2022-12-03T15:51:34.635Z,38.80
2022-12-03T15:53:07.676Z,37.50
2022-12-03T15:54:44.258Z,36.33
2022-12-03T15:56:17.606Z,34.83
2022-12-03T15:57:50.711Z,37.57
2022-12-03T15:59:23.808Z,36.93
2022-12-03T16:00:56.842Z,36.30
2022-12-03T16:02:33.858Z,37.67
2022-12-03T16:04:07.016Z,37.03
2022-12-03T16:05:41.486Z,36.03
2022-12-03T16:07:14.572Z,39.33
2022-12-03T16:08:48.156Z,35.40
2022-12-03T16:10:21.984Z,35.60
2022-12-03T16:11:55.538Z,38.93
2022-12-03T16:13:28.598Z,35.97
2022-12-03T16:15:01.723Z,37.87
2022-12-03T16:16:34.877Z,35.70
2022-12-03T16:18:08.001Z,32.27
2022-12-03T16:19:41.508Z,35.80
2022-12-03T16:21:15.918Z,33.60
2022-12-03T16:22:49.069Z,37.30
2022-12-03T16:24:22.133Z,36.30
2022-12-03T16:25:55.209Z,38.20
2022-12-03T16:27:28.292Z,35.00
2022-12-03T16:29:01.443Z,34.50
2022-12-03T16:30:34.636Z,38.77
2022-12-03T16:32:08.094Z,38.67
2022-12-03T16:33:41.135Z,38.40
2022-12-03T16:35:14.224Z,43.27
2022-12-03T16:36:48.681Z,38.93
2022-12-03T16:38:22.008Z,37.57
2022-12-03T16:39:55.353Z,40.30
2022-12-03T16:41:28.790Z,39.43
2022-12-03T16:43:03.319Z,41.80
2022-12-03T16:44:54.627Z,41.70
2022-12-03T16:46:27.807Z,38.73
2022-12-03T16:48:02.565Z,39.80
2022-12-03T16:49:35.612Z,39.20
2022-12-03T16:51:08.793Z,38.83
2022-12-03T16:52:43.414Z,42.50
2022-12-03T16:54:16.487Z,39.00
2022-12-03T16:55:49.540Z,41.80
2022-12-03T16:57:22.620Z,42.43
2022-12-03T16:58:57.477Z,40.47
2022-12-03T17:00:30.768Z,42.97
2022-12-03T17:02:03.907Z,46.13
2022-12-03T17:03:38.221Z,42.67
2022-12-03T17:05:11.295Z,39.87
2022-12-03T17:06:44.390Z,41.17
2022-12-03T17:08:18.899Z,44.10
2022-12-03T17:09:52.828Z,39.80
2022-12-03T17:11:26.182Z,43.57
2022-12-03T17:13:15.015Z,43.00
2022-12-03T17:14:48.074Z,40.73
2022-12-03T17:16:21.208Z,39.80
2022-12-03T17:17:54.371Z,40.43
2022-12-03T17:19:27.539Z,38.07
2022-12-03T17:21:00.618Z,40.10
2022-12-03T17:22:33.751Z,38.63
2022-12-03T17:24:09.005Z,40.30
2022-12-03T17:25:42.080Z,38.83
2022-12-03T17:27:15.691Z,40.60
2022-12-03T17:28:48.881Z,37.03
2022-12-03T17:30:22.358Z,39.10
2022-12-03T17:31:55.587Z,36.23
2022-12-03T17:33:28.688Z,39.13
2022-12-03T17:35:01.832Z,37.97
2022-12-03T17:36:34.898Z,39.97
2022-12-03T17:38:09.071Z,38.40
2022-12-03T17:39:43.580Z,37.80
2022-12-03T17:41:16.759Z,39.37
2022-12-03T17:42:49.807Z,42.67
2022-12-03T17:44:22.884Z,41.03
2022-12-03T17:45:55.902Z,44.07
2022-12-03T17:47:29.008Z,40.60
2022-12-03T17:49:02.535Z,41.07
2022-12-03T17:50:35.728Z,42.07
2022-12-03T17:52:08.823Z,40.63
2022-12-03T17:53:41.934Z,38.27
2022-12-03T17:55:26.471Z,40.57
2022-12-03T17:57:06.970Z,40.00
2022-12-03T17:58:40.002Z,39.87
2022-12-03T18:00:14.008Z,41.20
2022-12-03T18:01:48.123Z,35.60
2022-12-03T18:03:21.234Z,34.27
2022-12-03T18:04:54.298Z,36.87
2022-12-03T18:06:27.386Z,36.10
2022-12-03T18:08:00.510Z,39.23
2022-12-03T18:09:33.702Z,36.37
2022-12-03T18:11:08.252Z,36.03
2022-12-03T18:12:41.280Z,36.67
2022-12-03T18:14:14.357Z,34.70
2022-12-03T18:15:47.459Z,36.23
2022-12-03T18:17:21.054Z,33.37
2022-12-03T18:18:57.123Z,34.57
2022-12-03T18:20:31.426Z,31.83
2022-12-03T18:22:04.608Z,29.97
2022-12-03T18:23:37.837Z,32.47
2022-12-03T18:25:11.682Z,30.87
2022-12-03T18:26:46.145Z,32.07
2022-12-03T18:28:19.282Z,29.97
2022-12-03T18:29:52.954Z,33.37
2022-12-03T18:31:26.303Z,32.87
2022-12-03T18:32:59.408Z,29.77
2022-12-03T18:34:32.539Z,31.17
2022-12-03T18:36:08.446Z,28.37
2022-12-03T18:37:45.535Z,26.10
2022-12-03T18:39:25.715Z,28.43
2022-12-03T18:40:58.944Z,32.03
2022-12-03T18:42:33.369Z,31.77
2022-12-03T18:44:10.906Z,30.23
2022-12-03T18:45:44.389Z,29.60
2022-12-03T18:47:19.715Z,30.17
2022-12-03T18:48:52.884Z,29.67
2022-12-03T18:50:25.961Z,29.20
2022-12-03T18:51:59.860Z,29.17
2022-12-03T18:53:32.994Z,30.03
2022-12-03T18:55:07.872Z,30.07
2022-12-03T18:56:41.194Z,32.20
2022-12-03T18:58:15.802Z,31.77
2022-12-03T18:59:48.887Z,29.93
2022-12-03T19:01:23.772Z,32.63
2022-12-03T19:03:04.861Z,31.90
2022-12-03T19:04:38.053Z,32.83
2022-12-03T19:06:18.644Z,38.60
2022-12-03T19:07:54.987Z,38.80
2022-12-03T19:09:28.232Z,36.07
2022-12-03T19:11:01.728Z,36.30
2022-12-03T19:12:34.963Z,37.97
2022-12-03T19:14:11.042Z,43.20
2022-12-03T19:15:44.106Z,39.33
2022-12-03T19:17:17.144Z,34.10
2022-12-03T19:18:50.243Z,34.80
2022-12-03T19:20:23.354Z,36.27
2022-12-03T19:21:56.420Z,34.03
2022-12-03T19:23:29.497Z,33.37
2022-12-03T19:25:02.635Z,30.90
2022-12-03T19:26:35.767Z,32.87
2022-12-03T19:28:09.410Z,34.10
2022-12-03T19:29:44.257Z,32.70
2022-12-03T19:31:19.507Z,31.67
2022-12-03T19:32:52.611Z,32.07
2022-12-03T19:34:25.865Z,34.67
2022-12-03T19:36:00.110Z,32.17
2022-12-03T19:37:34.120Z,35.33
2022-12-03T19:39:07.202Z,30.60
2022-12-03T19:40:40.335Z,33.97
2022-12-03T19:42:13.390Z,29.63
2022-12-03T19:43:50.144Z,29.83
2022-12-03T19:45:24.694Z,27.90
2022-12-03T19:46:57.893Z,27.60
2022-12-03T19:48:31.557Z,31.03
2022-12-03T19:50:05.797Z,29.63
2022-12-03T19:51:39.358Z,31.97
2022-12-03T19:53:12.394Z,28.63
2022-12-03T19:54:45.640Z,31.80
2022-12-03T19:56:20.118Z,29.53
2022-12-03T19:57:53.235Z,29.57
2022-12-03T19:59:26.338Z,31.13
2022-12-03T20:01:07.784Z,29.33
2022-12-03T20:02:40.922Z,30.90
2022-12-03T20:04:14.056Z,30.23
2022-12-03T20:05:47.211Z,29.20
2022-12-03T20:07:20.250Z,31.40
2022-12-03T20:08:57.008Z,31.47
2022-12-03T20:10:30.248Z,31.23
2022-12-03T20:12:03.307Z,29.77
2022-12-03T20:13:36.782Z,28.77
2022-12-03T20:15:10.604Z,29.30
2022-12-03T20:16:45.949Z,32.67
2022-12-03T20:18:19.160Z,29.53
2022-12-03T20:19:52.384Z,29.80
2022-12-03T20:21:25.650Z,32.23
2022-12-03T20:22:58.932Z,32.00
2022-12-03T20:24:32.009Z,28.83
2022-12-03T20:26:09.069Z,34.63